createdAt,value
2019-06-26T00:00:12.982Z,18.50
2019-06-26T00:02:41.760Z,18.50
2019-06-26T00:05:10.688Z,18.50
2019-06-26T00:07:39.530Z,18.50
2019-06-26T00:10:08.864Z,18.60
2019-06-26T00:12:39.172Z,18.60
2019-06-26T00:15:08.513Z,18.60
2019-06-26T00:17:37.298Z,18.60
2019-06-26T00:20:06.959Z,18.60
2019-06-26T00:22:35.772Z,18.50
2019-06-26T00:25:06.511Z,18.50
2019-06-26T00:27:35.343Z,18.60
2019-06-26T00:30:09.022Z,18.40
2019-06-26T00:32:37.792Z,18.40
2019-06-26T00:35:06.621Z,18.40
2019-06-26T00:37:35.463Z,18.30
2019-06-26T00:40:06.403Z,18.30
2019-06-26T00:42:35.260Z,18.30
2019-06-26T00:45:05.761Z,18.40
2019-06-26T00:47:34.612Z,18.40
2019-06-26T00:50:04.157Z,18.30
2019-06-26T00:52:33.040Z,18.20
2019-06-26T00:55:01.893Z,18.20
2019-06-26T00:57:30.734Z,18.10
2019-06-26T01:00:01.271Z,18.00
2019-06-26T01:02:30.079Z,18.10
2019-06-26T01:05:00.565Z,18.10
2019-06-26T01:07:29.333Z,18.00
2019-06-26T01:09:58.135Z,17.90
2019-06-26T01:12:26.947Z,18.00
2019-06-26T01:14:55.825Z,17.90
2019-06-26T01:17:24.824Z,17.90
2019-06-26T01:19:53.727Z,17.90
2019-06-26T01:22:22.551Z,17.90
2019-06-26T01:24:51.395Z,17.90
2019-06-26T01:27:20.144Z,17.90
2019-06-26T01:29:48.930Z,17.90
2019-06-26T01:32:19.216Z,17.90
2019-06-26T01:34:48.074Z,17.90
2019-06-26T01:37:16.923Z,17.90
2019-06-26T01:39:49.101Z,17.90
2019-06-26T01:42:17.880Z,17.90
2019-06-26T01:44:46.660Z,17.80
2019-06-26T01:47:15.481Z,17.80
2019-06-26T01:49:44.309Z,17.80
2019-06-26T01:52:13.072Z,17.90
2019-06-26T01:54:41.908Z,17.90
2019-06-26T01:57:10.751Z,17.90
2019-06-26T01:59:39.584Z,17.90
2019-06-26T02:02:08.344Z,17.80
2019-06-26T02:04:37.101Z,17.90
2019-06-26T02:07:05.944Z,17.80
2019-06-26T02:09:34.773Z,17.70
2019-06-26T02:12:03.629Z,17.70
2019-06-26T02:14:32.484Z,17.70
2019-06-26T02:17:01.339Z,17.70
2019-06-26T02:19:30.079Z,17.70
2019-06-26T02:21:58.944Z,17.70
2019-06-26T02:24:27.657Z,17.70
2019-06-26T02:26:56.417Z,17.70
2019-06-26T02:29:25.287Z,17.70
2019-06-26T02:31:54.006Z,17.80
2019-06-26T02:34:22.769Z,17.80
2019-06-26T02:36:51.508Z,18.00
2019-06-26T02:39:20.339Z,18.10
2019-06-26T02:41:49.201Z,18.10
2019-06-26T02:44:18.044Z,18.20
2019-06-26T02:46:46.907Z,18.30
2019-06-26T02:49:15.680Z,18.30
2019-06-26T02:51:44.486Z,18.30
2019-06-26T02:54:13.415Z,18.30
2019-06-26T02:56:42.237Z,18.30
2019-06-26T02:59:11.073Z,18.40
2019-06-26T03:01:39.891Z,18.40
2019-06-26T03:04:08.727Z,18.40
2019-06-26T03:06:37.563Z,18.40
2019-06-26T03:09:07.401Z,18.50
2019-06-26T03:11:36.201Z,18.50
2019-06-26T03:14:05.022Z,18.50
2019-06-26T03:16:33.794Z,18.50
2019-06-26T03:19:02.658Z,18.50
2019-06-26T03:21:31.507Z,18.50
2019-06-26T03:24:00.244Z,18.60
2019-06-26T03:26:29.100Z,18.50
2019-06-26T03:28:57.965Z,18.50
2019-06-26T03:31:26.801Z,18.50
2019-06-26T03:33:55.551Z,18.70
2019-06-26T03:36:24.443Z,18.80
2019-06-26T03:38:53.281Z,18.90
2019-06-26T03:41:22.033Z,18.90
2019-06-26T03:43:50.961Z,18.90
2019-06-26T03:46:19.870Z,19.00
2019-06-26T03:48:48.636Z,19.00
2019-06-26T03:51:18.041Z,19.00
2019-06-26T03:53:46.861Z,18.90
2019-06-26T03:56:15.712Z,18.90
2019-06-26T03:58:44.525Z,18.90
2019-06-26T04:01:13.385Z,19.00
2019-06-26T04:03:42.210Z,19.10
2019-06-26T04:06:11.040Z,19.20
2019-06-26T04:08:39.956Z,19.20
2019-06-26T04:11:08.735Z,19.30
2019-06-26T04:13:40.297Z,19.30
2019-06-26T04:16:09.043Z,19.30
2019-06-26T04:18:38.779Z,19.30
2019-06-26T04:21:07.622Z,19.40
2019-06-26T04:23:36.458Z,19.40
2019-06-26T04:26:05.322Z,19.50
2019-06-26T04:28:34.207Z,19.60
2019-06-26T04:31:03.130Z,19.60
2019-06-26T04:33:31.978Z,19.50
2019-06-26T04:36:00.824Z,19.50
2019-06-26T04:38:29.667Z,19.50
2019-06-26T04:40:58.513Z,19.50
2019-06-26T04:43:28.653Z,19.50
2019-06-26T04:45:58.682Z,19.40
2019-06-26T04:48:27.729Z,19.50
2019-06-26T04:50:56.586Z,19.60
2019-06-26T04:53:25.393Z,19.60
2019-06-26T04:55:54.306Z,19.60
2019-06-26T04:58:23.056Z,19.60
2019-06-26T05:00:51.999Z,19.40
2019-06-26T05:03:20.806Z,19.60
2019-06-26T05:05:49.655Z,19.70
2019-06-26T05:08:19.673Z,19.80
2019-06-26T05:10:48.502Z,19.70
2019-06-26T05:13:17.328Z,20.00
2019-06-26T05:15:46.173Z,20.10
2019-06-26T05:18:15.015Z,20.00
2019-06-26T05:20:43.779Z,20.20
2019-06-26T05:23:12.543Z,20.10
2019-06-26T05:25:41.719Z,20.20
2019-06-26T05:28:10.477Z,20.30
2019-06-26T05:30:39.364Z,20.40
2019-06-26T05:33:08.169Z,20.40
2019-06-26T05:35:36.934Z,20.60
2019-06-26T05:38:05.776Z,20.60
2019-06-26T05:40:34.550Z,20.70
2019-06-26T05:43:03.411Z,20.70
2019-06-26T05:45:32.253Z,20.70
2019-06-26T05:48:01.120Z,20.60
2019-06-26T05:50:29.940Z,20.70
2019-06-26T05:52:58.837Z,21.10
2019-06-26T05:55:27.754Z,21.30
2019-06-26T05:57:56.591Z,21.40
2019-06-26T06:00:25.446Z,21.40
2019-06-26T06:02:54.347Z,21.50
2019-06-26T06:05:23.132Z,21.60
2019-06-26T06:07:51.988Z,21.70
2019-06-26T06:10:21.109Z,21.60
2019-06-26T06:12:49.940Z,21.30
2019-06-26T06:15:19.965Z,21.20
2019-06-26T06:17:49.321Z,21.20
2019-06-26T06:20:23.761Z,21.20
2019-06-26T06:22:52.627Z,21.30
2019-06-26T06:25:21.453Z,21.30
2019-06-26T06:27:50.288Z,21.30
2019-06-26T06:30:19.259Z,21.40
2019-06-26T06:32:48.031Z,21.40
2019-06-26T06:35:16.859Z,21.60
2019-06-26T06:37:45.694Z,21.70
2019-06-26T06:40:14.535Z,21.80
2019-06-26T06:42:43.373Z,21.90
2019-06-26T06:45:12.336Z,21.80
2019-06-26T06:47:41.164Z,21.70
2019-06-26T06:50:10.653Z,21.90
2019-06-26T06:52:39.518Z,22.00
2019-06-26T06:55:08.349Z,22.10
2019-06-26T06:57:37.224Z,22.40
2019-06-26T07:00:07.717Z,22.80
2019-06-26T07:02:36.564Z,23.20
2019-06-26T07:05:08.702Z,23.30
2019-06-26T07:07:37.588Z,23.50
2019-06-26T07:10:08.024Z,23.60
2019-06-26T07:12:36.862Z,23.60
2019-06-26T07:15:09.581Z,23.50
2019-06-26T07:17:38.416Z,23.40
2019-06-26T07:20:07.635Z,23.40
2019-06-26T07:22:36.511Z,23.30
2019-06-26T07:25:06.117Z,23.10
2019-06-26T07:27:34.959Z,23.10
2019-06-26T07:30:05.189Z,23.10
2019-06-26T07:32:34.061Z,23.20
2019-06-26T07:35:02.947Z,23.30
2019-06-26T07:37:31.676Z,23.50
2019-06-26T07:40:02.016Z,23.70
2019-06-26T07:42:30.916Z,23.90
2019-06-26T07:44:59.791Z,24.00
2019-06-26T07:47:42.355Z,24.20
2019-06-26T07:49:59.137Z,24.10
2019-06-26T07:52:29.760Z,24.10
2019-06-26T07:54:58.545Z,24.20
2019-06-26T07:57:27.425Z,24.20
2019-06-26T07:59:56.229Z,24.30
2019-06-26T08:02:25.066Z,24.50
2019-06-26T08:04:53.933Z,24.80
2019-06-26T08:07:22.794Z,24.90
2019-06-26T08:09:51.572Z,24.90
2019-06-26T08:12:20.449Z,25.00
2019-06-26T08:14:49.932Z,24.80
2019-06-26T08:17:18.818Z,25.00
2019-06-26T08:19:48.661Z,25.00
2019-06-26T08:22:17.513Z,24.70
2019-06-26T08:24:46.348Z,24.80
2019-06-26T08:27:15.206Z,24.90
2019-06-26T08:29:44.014Z,25.10
2019-06-26T08:32:14.455Z,25.40
2019-06-26T08:34:43.270Z,25.60
2019-06-26T08:37:12.027Z,25.60
2019-06-26T08:39:40.863Z,26.00
2019-06-26T08:42:09.737Z,25.80
2019-06-26T08:44:38.548Z,25.80
2019-06-26T08:47:07.309Z,26.50
2019-06-26T08:49:36.170Z,26.40
2019-06-26T08:52:05.454Z,26.20
2019-06-26T08:54:34.332Z,25.80
2019-06-26T08:57:03.189Z,25.80
2019-06-26T08:59:32.026Z,26.30
2019-06-26T09:02:00.902Z,26.90
2019-06-26T09:04:29.781Z,27.80
2019-06-26T09:06:58.538Z,27.90
2019-06-26T09:09:27.288Z,29.40
2019-06-26T09:11:56.187Z,30.90
2019-06-26T09:14:25.055Z,30.80
2019-06-26T09:16:53.815Z,30.50
2019-06-26T09:19:22.591Z,30.00
2019-06-26T09:21:51.443Z,29.30
2019-06-26T09:24:22.114Z,29.90
2019-06-26T09:26:50.949Z,30.70
2019-06-26T09:29:23.671Z,31.10
2019-06-26T09:31:50.548Z,31.90
2019-06-26T09:34:20.884Z,32.20
2019-06-26T09:36:49.741Z,31.20
2019-06-26T09:39:18.579Z,31.60
2019-06-26T09:41:47.405Z,32.40
2019-06-26T09:44:16.305Z,32.50
2019-06-26T09:46:45.118Z,33.20
2019-06-26T09:49:13.870Z,32.90
2019-06-26T09:51:42.711Z,32.40
2019-06-26T09:54:11.542Z,32.00
2019-06-26T09:56:40.325Z,32.40
2019-06-26T09:59:09.147Z,32.80
2019-06-26T10:01:37.999Z,32.50
2019-06-26T10:04:07.474Z,33.10
2019-06-26T10:06:36.276Z,33.70
2019-06-26T10:09:07.668Z,33.10
2019-06-26T10:11:36.560Z,32.40
2019-06-26T10:14:05.612Z,31.80
2019-06-26T10:16:34.432Z,31.00
2019-06-26T10:19:10.193Z,30.20
2019-06-26T10:21:35.151Z,30.30
2019-06-26T10:24:03.995Z,30.90
2019-06-26T10:26:34.290Z,31.20
2019-06-26T10:29:03.124Z,30.50
2019-06-26T10:31:32.166Z,29.60
2019-06-26T10:34:01.088Z,29.50
2019-06-26T10:36:29.930Z,29.30
2019-06-26T10:38:58.786Z,30.20
2019-06-26T10:41:27.636Z,30.80
2019-06-26T10:43:56.492Z,31.80
2019-06-26T10:46:25.507Z,32.50
2019-06-26T10:48:54.284Z,33.10
2019-06-26T10:51:23.147Z,33.40
2019-06-26T10:53:51.956Z,33.30
2019-06-26T10:56:20.991Z,33.30
2019-06-26T10:58:51.881Z,32.80
2019-06-26T11:01:25.370Z,33.00
2019-06-26T11:03:54.820Z,32.90
2019-06-26T11:06:23.668Z,33.10
2019-06-26T11:08:52.462Z,33.10
2019-06-26T11:11:21.620Z,33.10
2019-06-26T11:13:50.386Z,33.30
2019-06-26T11:16:19.838Z,33.20
2019-06-26T11:18:48.660Z,33.70
2019-06-26T11:21:17.495Z,34.30
2019-06-26T11:23:46.316Z,34.50
2019-06-26T11:26:15.124Z,34.50
2019-06-26T11:28:45.495Z,35.50
2019-06-26T11:31:14.549Z,36.00
2019-06-26T11:33:43.487Z,35.50
2019-06-26T11:36:12.336Z,35.40
2019-06-26T11:38:41.165Z,34.50
2019-06-26T11:41:10.014Z,34.50
2019-06-26T11:43:38.848Z,34.40
2019-06-26T11:46:07.740Z,34.30
2019-06-26T11:48:36.604Z,34.10
2019-06-26T11:51:05.575Z,34.00
2019-06-26T11:53:34.533Z,34.70
2019-06-26T11:56:05.020Z,34.30
2019-06-26T11:58:33.860Z,33.60
2019-06-26T12:01:04.167Z,32.80
2019-06-26T12:03:32.917Z,32.30
2019-06-26T12:06:12.247Z,31.40
2019-06-26T12:08:32.287Z,31.20
2019-06-26T12:11:01.132Z,30.70
2019-06-26T12:13:33.284Z,30.80
2019-06-26T12:16:03.594Z,31.20
2019-06-26T12:18:32.302Z,31.50
2019-06-26T12:21:01.146Z,31.60
2019-06-26T12:23:31.594Z,31.50
2019-06-26T12:26:00.452Z,32.10
2019-06-26T12:28:29.280Z,32.40
2019-06-26T12:30:58.061Z,32.90
2019-06-26T12:33:26.900Z,33.20
2019-06-26T12:35:55.741Z,33.50
2019-06-26T12:38:24.515Z,34.00
2019-06-26T12:40:53.365Z,33.90
2019-06-26T12:43:22.105Z,33.00
2019-06-26T12:45:50.980Z,32.90
2019-06-26T12:48:19.822Z,33.20
2019-06-26T12:50:48.576Z,34.20
2019-06-26T12:53:17.400Z,35.10
2019-06-26T12:55:46.229Z,35.30
2019-06-26T12:58:19.729Z,35.30
2019-06-26T13:00:47.640Z,34.50
2019-06-26T13:03:18.976Z,33.70
2019-06-26T13:05:47.736Z,33.00
2019-06-26T13:08:16.564Z,32.70
2019-06-26T13:10:50.191Z,32.60
2019-06-26T13:13:15.736Z,32.00
2019-06-26T13:15:44.633Z,32.10
2019-06-26T13:18:13.828Z,32.00
2019-06-26T13:20:52.611Z,31.70
2019-06-26T13:23:14.900Z,31.60
2019-06-26T13:25:43.592Z,31.30
2019-06-26T13:28:12.426Z,31.20
2019-06-26T13:30:41.198Z,30.90
2019-06-26T13:33:10.012Z,30.70
2019-06-26T13:35:38.847Z,30.50
2019-06-26T13:38:07.682Z,30.20
2019-06-26T13:40:36.539Z,30.00
2019-06-26T13:43:05.364Z,29.90
2019-06-26T13:45:34.097Z,29.90
2019-06-26T13:48:03.881Z,30.10
2019-06-26T13:50:32.657Z,30.40
2019-06-26T13:53:01.516Z,30.60
2019-06-26T13:55:30.357Z,30.60
2019-06-26T13:58:01.973Z,30.30
2019-06-26T14:00:30.951Z,30.10
2019-06-26T14:02:59.871Z,29.90
2019-06-26T14:05:29.642Z,29.80
2019-06-26T14:07:58.545Z,29.60
2019-06-26T14:10:27.416Z,29.50
2019-06-26T14:12:56.429Z,29.60
2019-06-26T14:15:25.670Z,30.00
2019-06-26T14:17:54.513Z,30.40
2019-06-26T14:20:23.370Z,31.00
2019-06-26T14:22:52.369Z,31.00
2019-06-26T14:25:21.304Z,31.40
2019-06-26T14:27:50.162Z,31.40
2019-06-26T14:30:19.111Z,31.50
2019-06-26T14:32:47.925Z,31.50
2019-06-26T14:35:17.621Z,31.50
2019-06-26T14:37:46.466Z,31.50
2019-06-26T14:40:15.981Z,31.50
2019-06-26T14:42:44.847Z,31.50
2019-06-26T14:45:13.697Z,31.20
2019-06-26T14:47:42.616Z,30.80
2019-06-26T14:50:11.536Z,30.30
2019-06-26T14:52:40.301Z,29.80
2019-06-26T14:55:10.651Z,29.50
2019-06-26T14:57:39.416Z,29.30
2019-06-26T15:00:09.844Z,29.10
2019-06-26T15:02:39.974Z,29.10
2019-06-26T15:05:10.173Z,29.00
2019-06-26T15:07:39.005Z,29.00
2019-06-26T15:10:09.233Z,28.90
2019-06-26T15:12:38.085Z,28.70
2019-06-26T15:15:07.167Z,28.70
2019-06-26T15:17:35.996Z,28.70
2019-06-26T15:20:06.666Z,28.60
2019-06-26T15:22:35.457Z,28.60
2019-06-26T15:25:05.993Z,28.50
2019-06-26T15:27:34.843Z,28.40
2019-06-26T15:30:05.400Z,28.20
2019-06-26T15:32:34.201Z,28.10
2019-06-26T15:35:03.938Z,28.00
2019-06-26T15:37:32.759Z,28.00
2019-06-26T15:40:01.705Z,28.00
2019-06-26T15:42:31.377Z,28.00
2019-06-26T15:45:00.210Z,28.00
2019-06-26T15:47:28.973Z,27.90
2019-06-26T15:49:57.796Z,27.80
2019-06-26T15:52:26.660Z,27.70
2019-06-26T15:54:56.384Z,27.40
2019-06-26T15:57:25.298Z,27.40
2019-06-26T15:59:54.660Z,27.40
2019-06-26T16:02:24.008Z,27.30
2019-06-26T16:04:55.364Z,27.10
2019-06-26T16:07:24.402Z,27.10
2019-06-26T16:09:53.266Z,27.00
2019-06-26T16:12:24.924Z,27.00
2019-06-26T16:14:54.372Z,27.00
2019-06-26T16:17:25.419Z,26.90
2019-06-26T16:19:55.615Z,27.00
2019-06-26T16:22:32.333Z,26.90
2019-06-26T16:24:54.942Z,26.90
2019-06-26T16:27:24.231Z,26.90
2019-06-26T16:29:55.364Z,26.90
2019-06-26T16:32:24.178Z,27.10
2019-06-26T16:34:52.936Z,27.10
2019-06-26T16:37:21.937Z,27.20
2019-06-26T16:39:51.798Z,27.10
2019-06-26T16:42:23.719Z,27.10
2019-06-26T16:44:52.634Z,27.00
2019-06-26T16:47:21.441Z,27.00
2019-06-26T16:49:50.412Z,26.80
2019-06-26T16:52:19.225Z,26.80
2019-06-26T16:54:48.416Z,26.70
2019-06-26T16:57:21.049Z,26.50
2019-06-26T16:59:50.318Z,26.50
2019-06-26T17:02:19.176Z,26.50
2019-06-26T17:04:48.474Z,26.40
2019-06-26T17:07:17.312Z,26.30
2019-06-26T17:09:47.268Z,26.20
2019-06-26T17:12:16.316Z,26.20
2019-06-26T17:14:46.873Z,26.10
2019-06-26T17:17:16.320Z,26.00
2019-06-26T17:19:45.084Z,26.00
2019-06-26T17:22:13.912Z,26.00
2019-06-26T17:24:42.840Z,26.00
2019-06-26T17:27:11.669Z,25.90
2019-06-26T17:29:40.492Z,25.80
2019-06-26T17:32:09.838Z,25.80
2019-06-26T17:34:38.687Z,25.80
2019-06-26T17:37:07.552Z,25.70
2019-06-26T17:39:36.386Z,25.70
2019-06-26T17:42:05.231Z,25.60
2019-06-26T17:44:34.064Z,25.70
2019-06-26T17:47:05.455Z,25.60
2019-06-26T17:49:34.748Z,25.60
2019-06-26T17:52:04.377Z,25.60
2019-06-26T17:54:33.226Z,25.60
2019-06-26T17:57:02.045Z,25.50
2019-06-26T17:59:30.900Z,25.40
2019-06-26T18:01:59.790Z,25.30
2019-06-26T18:04:28.598Z,25.30
2019-06-26T18:06:57.496Z,25.20
2019-06-26T18:09:26.360Z,25.30
2019-06-26T18:11:55.176Z,25.20
2019-06-26T18:14:24.036Z,25.10
2019-06-26T18:16:52.885Z,25.10
2019-06-26T18:19:21.734Z,25.10
2019-06-26T18:21:50.512Z,25.00
2019-06-26T18:24:19.318Z,25.00
2019-06-26T18:26:48.151Z,24.90
2019-06-26T18:29:16.983Z,24.90
2019-06-26T18:31:45.800Z,24.90
2019-06-26T18:34:14.557Z,24.80
2019-06-26T18:36:43.471Z,24.70
2019-06-26T18:39:12.264Z,24.60
2019-06-26T18:41:41.000Z,24.50
2019-06-26T18:44:09.956Z,24.40
2019-06-26T18:46:38.806Z,24.30
2019-06-26T18:49:07.612Z,24.20
2019-06-26T18:51:36.398Z,24.00
2019-06-26T18:54:05.689Z,23.80
2019-06-26T18:56:34.453Z,23.80
2019-06-26T18:59:03.269Z,23.80
2019-06-26T19:01:32.124Z,23.70
2019-06-26T19:04:00.860Z,23.60
2019-06-26T19:06:29.720Z,23.50
2019-06-26T19:09:00.403Z,23.40
2019-06-26T19:11:29.216Z,23.30
2019-06-26T19:13:59.289Z,23.20
2019-06-26T19:16:28.241Z,23.10
2019-06-26T19:18:57.123Z,23.20
2019-06-26T19:21:25.897Z,23.10
2019-06-26T19:24:09.196Z,23.00
2019-06-26T19:26:26.436Z,23.10
2019-06-26T19:28:55.296Z,23.00
2019-06-26T19:31:24.757Z,23.00
2019-06-26T19:33:53.601Z,23.00
2019-06-26T19:36:26.136Z,23.00
2019-06-26T19:38:54.212Z,22.90
2019-06-26T19:41:23.107Z,22.90
2019-06-26T19:43:51.994Z,22.90
2019-06-26T19:46:20.764Z,22.80
2019-06-26T19:48:49.607Z,22.80
2019-06-26T19:51:18.373Z,22.80
2019-06-26T19:53:47.201Z,22.70
2019-06-26T19:56:19.145Z,22.70
2019-06-26T19:58:46.357Z,22.60
2019-06-26T20:01:15.274Z,22.60
2019-06-26T20:03:44.087Z,22.60
2019-06-26T20:06:12.951Z,22.40
2019-06-26T20:08:52.251Z,22.10
2019-06-26T20:11:12.418Z,21.80
2019-06-26T20:13:41.328Z,21.20
2019-06-26T20:16:10.308Z,20.80
2019-06-26T20:18:39.148Z,20.50
2019-06-26T20:21:07.895Z,20.20
2019-06-26T20:23:36.738Z,20.00
2019-06-26T20:26:05.596Z,19.90
2019-06-26T20:28:34.441Z,19.70
2019-06-26T20:31:03.375Z,19.60
2019-06-26T20:33:32.226Z,19.50
2019-06-26T20:36:01.059Z,19.50
2019-06-26T20:38:29.914Z,19.50
2019-06-26T20:40:58.736Z,19.50
2019-06-26T20:43:27.668Z,19.50
2019-06-26T20:45:56.522Z,19.50
2019-06-26T20:48:25.288Z,19.40
2019-06-26T20:50:54.114Z,19.30
2019-06-26T20:53:22.959Z,19.40
2019-06-26T20:55:51.779Z,19.30
2019-06-26T20:58:40.092Z,19.20
2019-06-26T21:01:09.032Z,19.10
2019-06-26T21:04:30.727Z,19.30
2019-06-26T21:06:59.602Z,19.30
2019-06-26T21:09:28.583Z,19.30
2019-06-26T21:11:57.371Z,19.40
2019-06-26T21:14:26.120Z,19.50
2019-06-26T21:16:55.085Z,19.40
2019-06-26T21:19:24.108Z,19.30
2019-06-26T21:21:52.907Z,19.20
2019-06-26T21:24:21.931Z,19.20
2019-06-26T21:26:50.831Z,19.10
2019-06-26T21:29:19.945Z,19.10
2019-06-26T21:31:49.130Z,19.10
2019-06-26T21:34:18.236Z,19.10
2019-06-26T21:36:47.437Z,19.00
2019-06-26T21:39:16.264Z,18.90
2019-06-26T21:41:45.087Z,19.00
2019-06-26T21:44:13.927Z,19.00
2019-06-26T21:46:42.876Z,19.00
2019-06-26T21:49:11.567Z,18.90
2019-06-26T21:51:40.260Z,18.80
2019-06-26T21:54:09.448Z,18.80
2019-06-26T21:56:38.322Z,18.80
2019-06-26T21:59:07.099Z,18.70
2019-06-26T22:01:35.983Z,18.80
2019-06-26T22:04:06.319Z,18.80
2019-06-26T22:06:35.597Z,18.80
2019-06-26T22:09:05.830Z,18.80
2019-06-26T22:11:34.659Z,18.70
2019-06-26T22:14:03.484Z,18.60
2019-06-26T22:16:32.479Z,18.60
2019-06-26T22:19:01.309Z,18.50
2019-06-26T22:21:30.370Z,18.40
2019-06-26T22:23:59.198Z,18.30
2019-06-26T22:26:27.998Z,18.30
2019-06-26T22:28:56.841Z,18.30
2019-06-26T22:31:25.627Z,18.20
2019-06-26T22:33:54.485Z,18.20
2019-06-26T22:36:23.247Z,18.10
2019-06-26T22:38:52.293Z,18.10
2019-06-26T22:41:21.314Z,18.20
2019-06-26T22:43:52.424Z,18.20
2019-06-26T22:46:21.724Z,18.30
2019-06-26T22:48:50.716Z,18.20
2019-06-26T22:51:19.521Z,18.20
2019-06-26T22:53:48.692Z,18.20
2019-06-26T22:56:17.500Z,18.20
2019-06-26T22:58:46.332Z,18.10
2019-06-26T23:01:15.171Z,18.20
2019-06-26T23:03:43.932Z,18.10
2019-06-26T23:06:12.720Z,18.10
2019-06-26T23:08:41.693Z,18.10
2019-06-26T23:11:10.473Z,18.00
2019-06-26T23:13:39.305Z,18.00
2019-06-26T23:16:08.207Z,18.10
2019-06-26T23:18:37.033Z,18.20
2019-06-26T23:21:05.826Z,18.10
2019-06-26T23:23:34.595Z,18.10
2019-06-26T23:26:03.447Z,18.10
2019-06-26T23:28:32.277Z,18.10
2019-06-26T23:31:01.033Z,17.90
2019-06-26T23:33:29.891Z,17.90
2019-06-26T23:35:58.726Z,18.00
2019-06-26T23:38:27.567Z,18.00
2019-06-26T23:40:56.412Z,18.00
2019-06-26T23:43:25.257Z,18.10
2019-06-26T23:45:54.018Z,18.10
2019-06-26T23:48:22.786Z,18.00
2019-06-26T23:50:51.625Z,17.90
2019-06-26T23:53:20.464Z,17.90
2019-06-26T23:55:49.408Z,18.00
2019-06-26T23:58:18.297Z,18.00
